createdAt,value
2016-05-18T00:00:09.103Z,11.1
2016-05-18T00:00:19.088Z,11.14
2016-05-18T00:00:29.103Z,11.18
2016-05-18T00:00:39.103Z,11.14
2016-05-18T00:00:49.103Z,11.1
2016-05-18T00:00:59.103Z,11.11
2016-05-18T00:01:09.121Z,11.06
2016-05-18T00:01:19.136Z,11.06
2016-05-18T00:01:29.136Z,11.07
2016-05-18T00:01:38.980Z,11.09
2016-05-18T00:01:49.136Z,11.06
2016-05-18T00:01:59.152Z,11.06
2016-05-18T00:02:09.140Z,11.06
2016-05-18T00:02:19.000Z,11.03
2016-05-18T00:02:29.000Z,11.07
2016-05-18T00:02:39.172Z,11.06
2016-05-18T00:02:49.187Z,11.02
2016-05-18T00:02:59.172Z,11
2016-05-18T00:03:09.174Z,11
2016-05-18T00:03:19.189Z,11.06
2016-05-18T00:03:29.189Z,10.99
2016-05-18T00:03:39.189Z,11.06
2016-05-18T00:03:49.205Z,11
2016-05-18T00:03:59.205Z,10.94
2016-05-18T00:04:09.208Z,10.89
2016-05-18T00:04:19.208Z,10.99
2016-05-18T00:04:29.224Z,11.02
2016-05-18T00:04:39.224Z,10.94
2016-05-18T00:04:49.224Z,10.96
2016-05-18T00:04:59.239Z,10.92
2016-05-18T00:05:09.242Z,10.91
2016-05-18T00:05:19.242Z,10.91
2016-05-18T00:05:29.258Z,10.92
2016-05-18T00:05:39.258Z,10.94
2016-05-18T00:05:49.258Z,10.89
2016-05-18T00:05:59.273Z,10.91
2016-05-18T00:06:09.275Z,10.89
2016-05-18T00:06:19.275Z,10.78
2016-05-18T00:06:29.291Z,10.82
2016-05-18T00:06:39.291Z,10.89
2016-05-18T00:06:49.291Z,10.91
2016-05-18T00:06:59.307Z,10.91
2016-05-18T00:07:09.294Z,10.76
2016-05-18T00:07:19.700Z,10.89
2016-05-18T00:07:29.325Z,10.81
2016-05-18T00:07:39.560Z,10.85
2016-05-18T00:07:49.325Z,10.84
2016-05-18T00:07:59.325Z,10.84
2016-05-18T00:08:09.171Z,10.88
2016-05-18T00:08:19.327Z,10.74
2016-05-18T00:08:29.343Z,10.84
2016-05-18T00:08:39.343Z,10.88
2016-05-18T00:08:49.343Z,10.76
2016-05-18T00:08:59.202Z,10.82
2016-05-18T00:09:09.362Z,10.81
2016-05-18T00:09:19.362Z,10.81
2016-05-18T00:09:29.362Z,10.81
2016-05-18T00:09:39.221Z,10.71
2016-05-18T00:09:49.377Z,10.78
2016-05-18T00:09:59.377Z,10.79
2016-05-18T00:10:09.396Z,10.79
2016-05-18T00:10:19.396Z,10.78
2016-05-18T00:10:29.411Z,10.7
2016-05-18T00:10:39.411Z,10.76
2016-05-18T00:10:49.255Z,10.68
2016-05-18T00:10:59.411Z,10.71
2016-05-18T00:11:09.414Z,10.79
2016-05-18T00:11:19.430Z,10.73
2016-05-18T00:11:29.430Z,10.68
2016-05-18T00:11:39.430Z,10.76
2016-05-18T00:11:49.446Z,10.68
2016-05-18T00:11:59.289Z,10.68
2016-05-18T00:12:09.448Z,10.71
2016-05-18T00:12:19.448Z,10.71
2016-05-18T00:12:29.463Z,10.71
2016-05-18T00:12:39.463Z,10.73
2016-05-18T00:12:49.463Z,10.66
2016-05-18T00:12:59.323Z,10.61
2016-05-18T00:13:09.326Z,10.68
2016-05-18T00:13:19.482Z,10.61
2016-05-18T00:13:29.498Z,10.64
2016-05-18T00:13:39.498Z,10.61
2016-05-18T00:13:49.498Z,10.68
2016-05-18T00:13:59.498Z,10.61
2016-05-18T00:14:09.501Z,10.56
2016-05-18T00:14:19.516Z,10.67
2016-05-18T00:14:29.516Z,10.6
2016-05-18T00:14:39.532Z,10.66
2016-05-18T00:14:49.532Z,10.63
2016-05-18T00:14:59.391Z,10.6
2016-05-18T00:15:09.534Z,10.61
2016-05-18T00:15:19.549Z,10.67
2016-05-18T00:15:29.549Z,10.66
2016-05-18T00:15:39.393Z,10.53
2016-05-18T00:15:49.565Z,10.55
2016-05-18T00:15:59.409Z,10.48
2016-05-18T00:16:09.568Z,10.52
2016-05-18T00:16:19.584Z,10.55
2016-05-18T00:16:29.584Z,10.59
2016-05-18T00:16:39.584Z,10.48
2016-05-18T00:16:49.584Z,10.59
2016-05-18T00:16:59.599Z,10.55
2016-05-18T00:17:09.618Z,10.47
2016-05-18T00:17:19.618Z,10.51
2016-05-18T00:17:29.649Z,10.56
2016-05-18T00:17:39.618Z,10.64
2016-05-18T00:17:49.634Z,10.6
2016-05-18T00:17:59.634Z,10.56
2016-05-18T00:18:09.637Z,10.48
2016-05-18T00:18:19.637Z,10.51
2016-05-18T00:18:29.637Z,10.47
2016-05-18T00:18:39.652Z,10.55
2016-05-18T00:18:49.652Z,10.42
2016-05-18T00:18:59.668Z,10.44
2016-05-18T00:19:09.670Z,10.56
2016-05-18T00:19:19.670Z,10.47
2016-05-18T00:19:29.670Z,10.41
2016-05-18T00:19:39.514Z,10.48
2016-05-18T00:19:49.685Z,10.48
2016-05-18T00:19:59.685Z,10.47
2016-05-18T00:20:09.688Z,10.42
2016-05-18T00:20:19.704Z,10.45
2016-05-18T00:20:29.704Z,10.52
2016-05-18T00:20:39.704Z,10.53
2016-05-18T00:20:49.704Z,10.51
2016-05-18T00:20:59.720Z,10.48
2016-05-18T00:21:09.722Z,10.47
2016-05-18T00:21:19.722Z,10.44
2016-05-18T00:21:29.737Z,10.42
2016-05-18T00:21:39.581Z,10.4
2016-05-18T00:21:49.737Z,10.38
2016-05-18T00:21:59.753Z,10.44
2016-05-18T00:22:09.756Z,10.33
2016-05-18T00:22:20.084Z,10.44
2016-05-18T00:22:29.615Z,10.4
2016-05-18T00:22:39.787Z,10.38
2016-05-18T00:22:49.772Z,10.41
2016-05-18T00:23:00.303Z,10.41
2016-05-18T00:23:09.634Z,10.34
2016-05-18T00:23:19.806Z,10.34
2016-05-18T00:23:29.790Z,10.38
2016-05-18T00:23:39.634Z,10.32
2016-05-18T00:23:49.806Z,10.38
2016-05-18T00:23:59.806Z,10.27
2016-05-18T00:24:09.808Z,10.33
2016-05-18T00:24:19.667Z,10.3
2016-05-18T00:24:29.683Z,10.33
2016-05-18T00:24:39.823Z,10.33
2016-05-18T00:24:49.823Z,10.26
2016-05-18T00:24:59.839Z,10.27
2016-05-18T00:25:09.843Z,10.25
2016-05-18T00:25:19.859Z,10.25
2016-05-18T00:25:29.859Z,10.27
2016-05-18T00:25:39.859Z,10.32
2016-05-18T00:25:49.859Z,10.25
2016-05-18T00:25:59.859Z,10.32
2016-05-18T00:26:09.876Z,10.3
2016-05-18T00:26:19.876Z,10.3
2016-05-18T00:26:29.876Z,10.32
2016-05-18T00:26:39.892Z,10.2
2016-05-18T00:26:49.736Z,10.26
2016-05-18T00:26:59.908Z,10.33
2016-05-18T00:27:09.910Z,10.26
2016-05-18T00:27:19.753Z,10.32
2016-05-18T00:27:29.753Z,10.22
2016-05-18T00:27:39.910Z,10.15
2016-05-18T00:27:49.910Z,10.2
2016-05-18T00:27:59.925Z,10.14
2016-05-18T00:28:09.928Z,10.15
2016-05-18T00:28:19.928Z,10.17
2016-05-18T00:28:29.803Z,10.15
2016-05-18T00:28:39.944Z,10.17
2016-05-18T00:28:49.944Z,10.17
2016-05-18T00:28:59.959Z,10.15
2016-05-18T00:29:09.962Z,10.18
2016-05-18T00:29:19.962Z,10.14
2016-05-18T00:29:29.978Z,10.17
2016-05-18T00:29:39.978Z,10.17
2016-05-18T00:29:49.978Z,10.18
2016-05-18T00:29:59.978Z,10.15
2016-05-18T00:30:09.997Z,10.2
2016-05-18T00:30:19.997Z,10.14
2016-05-18T00:30:29.997Z,10.11
2016-05-18T00:30:39.997Z,10.17
2016-05-18T00:30:50.012Z,10.11
2016-05-18T00:31:00.012Z,10.15
2016-05-18T00:31:10.014Z,10.11
2016-05-18T00:31:19.874Z,10.11
2016-05-18T00:31:30.030Z,10.18
2016-05-18T00:31:40.030Z,10.15
2016-05-18T00:31:49.905Z,10.14
2016-05-18T00:32:00.046Z,10.12
2016-05-18T00:32:10.050Z,10.17
2016-05-18T00:32:20.050Z,10.12
2016-05-18T00:32:30.065Z,10.15
2016-05-18T00:32:40.065Z,10.11
2016-05-18T00:32:49.925Z,10.12
2016-05-18T00:33:00.065Z,10.07
2016-05-18T00:33:10.083Z,10.17
2016-05-18T00:33:20.098Z,10.08
2016-05-18T00:33:29.942Z,10.14
2016-05-18T00:33:40.098Z,10.17
2016-05-18T00:33:50.098Z,10.17
2016-05-18T00:34:00.098Z,10.11
2016-05-18T00:34:10.116Z,10.17
2016-05-18T00:34:20.116Z,10.17
2016-05-18T00:34:30.116Z,10.17
2016-05-18T00:34:40.116Z,10.14
2016-05-18T00:34:50.132Z,10.18
2016-05-18T00:35:00.132Z,10.12
2016-05-18T00:35:10.135Z,10.2
2016-05-18T00:35:19.994Z,10.15
2016-05-18T00:35:30.150Z,10.22
2016-05-18T00:35:39.994Z,10.22
2016-05-18T00:35:50.150Z,10.17
2016-05-18T00:36:00.166Z,10.18
2016-05-18T00:36:10.169Z,10.18
2016-05-18T00:36:20.169Z,10.27
2016-05-18T00:36:30.169Z,10.22
2016-05-18T00:36:40.028Z,10.17
2016-05-18T00:36:50.028Z,10.27
2016-05-18T00:37:00.185Z,10.2
2016-05-18T00:37:10.202Z,10.15
2016-05-18T00:37:20.202Z,10.25
2016-05-18T00:37:30.483Z,10.22
2016-05-18T00:37:40.218Z,10.22
2016-05-18T00:37:50.218Z,10.3
2016-05-18T00:38:00.062Z,10.27
2016-05-18T00:38:10.222Z,10.25
2016-05-18T00:38:20.550Z,10.26
2016-05-18T00:38:30.237Z,10.26
2016-05-18T00:38:40.237Z,10.27
2016-05-18T00:38:50.253Z,10.29
2016-05-18T00:39:00.253Z,10.29
2016-05-18T00:39:10.255Z,10.33
2016-05-18T00:39:20.255Z,10.34
2016-05-18T00:39:30.114Z,10.34
2016-05-18T00:39:40.271Z,10.3
2016-05-18T00:39:50.271Z,10.36
2016-05-18T00:40:00.286Z,10.4
2016-05-18T00:40:10.288Z,10.36
2016-05-18T00:40:20.132Z,10.38
2016-05-18T00:40:30.288Z,10.34
2016-05-18T00:40:40.163Z,10.45
2016-05-18T00:40:50.304Z,10.42
2016-05-18T00:41:00.304Z,10.34
2016-05-18T00:41:10.308Z,10.45
2016-05-18T00:41:20.324Z,10.34
2016-05-18T00:41:30.324Z,10.41
2016-05-18T00:41:40.324Z,10.4
2016-05-18T00:41:50.339Z,10.38
2016-05-18T00:42:00.339Z,10.44
2016-05-18T00:42:10.341Z,10.44
2016-05-18T00:42:20.341Z,10.38
2016-05-18T00:42:30.357Z,10.45
2016-05-18T00:42:40.372Z,10.36
2016-05-18T00:42:50.372Z,10.41
2016-05-18T00:43:00.372Z,10.44
2016-05-18T00:43:10.218Z,10.41
2016-05-18T00:43:20.390Z,10.42
2016-05-18T00:43:30.390Z,10.51
2016-05-18T00:43:40.390Z,10.38
2016-05-18T00:43:50.406Z,10.45
2016-05-18T00:44:00.421Z,10.47
2016-05-18T00:44:10.410Z,10.47
2016-05-18T00:44:20.253Z,10.51
2016-05-18T00:44:30.410Z,10.45
2016-05-18T00:44:40.425Z,10.47
2016-05-18T00:44:50.441Z,10.44
2016-05-18T00:45:00.425Z,10.52
2016-05-18T00:45:10.443Z,10.51
2016-05-18T00:45:20.443Z,10.47
2016-05-18T00:45:30.459Z,10.51
2016-05-18T00:45:40.459Z,10.47
2016-05-18T00:45:50.302Z,10.52
2016-05-18T00:46:00.459Z,10.44
2016-05-18T00:46:10.462Z,10.45
2016-05-18T00:46:20.571Z,10.53
2016-05-18T00:46:30.493Z,10.44
2016-05-18T00:46:40.477Z,10.48
2016-05-18T00:46:50.477Z,10.48
2016-05-18T00:47:00.493Z,10.51
2016-05-18T00:47:19.417Z,10.53
2016-05-18T00:47:29.401Z,10.53
2016-05-18T00:47:39.479Z,10.56
2016-05-18T00:47:49.260Z,10.55
2016-05-18T00:47:59.417Z,10.6
2016-05-18T00:48:09.435Z,10.53
2016-05-18T00:48:19.529Z,10.55
2016-05-18T00:48:30.217Z,10.52
2016-05-18T00:48:39.435Z,10.56
2016-05-18T00:48:49.435Z,10.51
2016-05-18T00:48:59.451Z,10.53
2016-05-18T00:49:09.297Z,10.52
2016-05-18T00:49:19.312Z,10.51
2016-05-18T00:49:29.484Z,10.44
2016-05-18T00:49:39.469Z,10.48
2016-05-18T00:49:49.312Z,10.52
2016-05-18T00:49:59.484Z,10.59
2016-05-18T00:50:09.488Z,10.59
2016-05-18T00:50:19.348Z,10.55
2016-05-18T00:50:29.488Z,10.52
2016-05-18T00:50:39.504Z,10.6
2016-05-18T00:50:49.504Z,10.66
2016-05-18T00:50:59.504Z,10.68
2016-05-18T00:51:09.506Z,10.64
2016-05-18T00:51:19.537Z,10.59
2016-05-18T00:51:29.521Z,10.64
2016-05-18T00:51:39.537Z,10.61
2016-05-18T00:51:49.537Z,10.66
2016-05-18T00:51:59.381Z,10.6
2016-05-18T00:52:09.540Z,10.59
2016-05-18T00:52:19.556Z,10.7
2016-05-18T00:52:29.556Z,10.6
2016-05-18T00:52:39.399Z,10.68
2016-05-18T00:52:49.540Z,10.67
2016-05-18T00:52:59.790Z,10.7
2016-05-18T00:53:09.840Z,10.68
2016-05-18T00:53:19.434Z,10.66
2016-05-18T00:53:29.590Z,10.67
2016-05-18T00:53:39.590Z,10.64
2016-05-18T00:53:49.590Z,10.67
2016-05-18T00:53:59.590Z,10.7
2016-05-18T00:54:09.451Z,10.74
2016-05-18T00:54:19.608Z,10.76
2016-05-18T00:54:29.608Z,10.78
2016-05-18T00:54:39.467Z,10.78
2016-05-18T00:54:49.623Z,10.71
2016-05-18T00:54:59.639Z,10.79
2016-05-18T00:55:09.626Z,10.74
2016-05-18T00:55:19.486Z,10.66
2016-05-18T00:55:29.642Z,10.76
2016-05-18T00:55:39.642Z,10.82
2016-05-18T00:55:49.642Z,10.81
2016-05-18T00:55:59.657Z,10.78
2016-05-18T00:56:09.659Z,10.78
2016-05-18T00:56:19.659Z,10.73
2016-05-18T00:56:29.675Z,10.82
2016-05-18T00:56:39.675Z,10.81
2016-05-18T00:56:49.691Z,10.7
2016-05-18T00:56:59.691Z,10.81
2016-05-18T00:57:09.694Z,10.82
2016-05-18T00:57:19.694Z,10.85
2016-05-18T00:57:29.694Z,10.81
2016-05-18T00:57:39.709Z,10.79
2016-05-18T00:57:49.709Z,10.79
2016-05-18T00:57:59.725Z,10.78
2016-05-18T00:58:09.712Z,10.81
2016-05-18T00:58:19.572Z,10.82
2016-05-18T00:58:29.744Z,10.81
2016-05-18T00:58:39.744Z,10.76
2016-05-18T00:58:49.744Z,10.85
2016-05-18T00:58:59.603Z,10.84
2016-05-18T00:59:09.747Z,10.86
2016-05-18T00:59:19.762Z,10.76
2016-05-18T00:59:29.762Z,10.85
2016-05-18T00:59:39.762Z,10.85
2016-05-18T00:59:49.793Z,10.82
2016-05-18T00:59:59.778Z,10.78
2016-05-18T01:00:09.795Z,10.85
2016-05-18T01:00:19.780Z,10.82
2016-05-18T01:00:29.795Z,10.84
2016-05-18T01:00:39.795Z,10.84
2016-05-18T01:00:49.795Z,10.88
2016-05-18T01:00:59.811Z,10.86
2016-05-18T01:01:09.814Z,10.81
2016-05-18T01:01:19.814Z,10.81
2016-05-18T01:01:29.830Z,10.82
2016-05-18T01:01:39.830Z,10.81
2016-05-18T01:01:49.830Z,10.84
2016-05-18T01:01:59.689Z,10.91
2016-05-18T01:02:09.848Z,10.78
2016-05-18T01:02:19.848Z,10.94
2016-05-18T01:02:29.848Z,10.94
2016-05-18T01:02:39.864Z,10.96
2016-05-18T01:02:49.864Z,10.92
2016-05-18T01:02:59.864Z,10.96
2016-05-18T01:03:09.710Z,10.89
2016-05-18T01:03:19.710Z,10.99
2016-05-18T01:03:29.882Z,10.94
2016-05-18T01:03:39.882Z,10.96
2016-05-18T01:03:49.897Z,10.96
2016-05-18T01:03:59.897Z,10.92
2016-05-18T01:04:09.900Z,10.92
2016-05-18T01:04:19.900Z,10.92
2016-05-18T01:04:29.916Z,10.91
2016-05-18T01:04:39.916Z,10.94
2016-05-18T01:04:49.916Z,11.04
2016-05-18T01:04:59.775Z,11.04
2016-05-18T01:05:09.934Z,11.02
2016-05-18T01:05:19.950Z,11.02
2016-05-18T01:05:29.934Z,11.02
2016-05-18T01:05:39.950Z,11.03
2016-05-18T01:05:49.950Z,11.02
2016-05-18T01:05:59.950Z,11
2016-05-18T01:06:09.797Z,11.06
2016-05-18T01:06:19.969Z,11.03
2016-05-18T01:06:29.969Z,10.99
2016-05-18T01:06:39.984Z,10.99
2016-05-18T01:06:49.984Z,10.97
2016-05-18T01:06:59.828Z,11.02
2016-05-18T01:07:09.986Z,10.97
2016-05-18T01:07:20.002Z,11.02
2016-05-18T01:07:30.018Z,11
2016-05-18T01:07:40.002Z,11.06
2016-05-18T01:07:50.033Z,11.07
2016-05-18T01:08:00.205Z,11.11
2016-05-18T01:08:10.021Z,11
2016-05-18T01:08:20.021Z,11.03
2016-05-18T01:08:30.021Z,11.1
2016-05-18T01:08:39.880Z,11.07
2016-05-18T01:08:50.036Z,11.07
2016-05-18T01:08:59.880Z,11.11
2016-05-18T01:09:10.055Z,11.07
2016-05-18T01:09:20.055Z,11.06
2016-05-18T01:09:30.055Z,11.1
2016-05-18T01:09:40.070Z,11.17
2016-05-18T01:09:49.914Z,11.1
2016-05-18T01:10:00.070Z,11.1
2016-05-18T01:10:09.916Z,11.11
2016-05-18T01:10:20.088Z,11.15
2016-05-18T01:10:30.088Z,11.14
2016-05-18T01:10:39.932Z,11.09
2016-05-18T01:10:50.104Z,11.11
2016-05-18T01:11:00.104Z,11.14
2016-05-18T01:11:10.107Z,11.17
2016-05-18T01:11:20.122Z,11.11
2016-05-18T01:11:30.122Z,11.21
2016-05-18T01:11:40.122Z,11.14
2016-05-18T01:11:50.122Z,11.27
2016-05-18T01:12:00.122Z,11.24
2016-05-18T01:12:09.984Z,11.21
2016-05-18T01:12:19.984Z,11.28
2016-05-18T01:12:30.140Z,11.32
2016-05-18T01:12:40.156Z,11.18
2016-05-18T01:12:50.156Z,11.15
2016-05-18T01:13:00.156Z,11.25
2016-05-18T01:13:10.175Z,11.19
2016-05-18T01:13:20.019Z,11.21
2016-05-18T01:13:30.175Z,11.28
2016-05-18T01:13:40.191Z,11.24
2016-05-18T01:13:50.191Z,11.27
2016-05-18T01:14:00.191Z,11.29
2016-05-18T01:14:10.052Z,11.29
2016-05-18T01:14:20.052Z,11.24
2016-05-18T01:14:30.208Z,11.32
2016-05-18T01:14:40.224Z,11.36
2016-05-18T01:14:50.208Z,11.36
2016-05-18T01:15:00.224Z,11.28
2016-05-18T01:15:10.242Z,11.27
2016-05-18T01:15:20.226Z,11.39
2016-05-18T01:15:30.085Z,11.32
2016-05-18T01:15:40.242Z,11.28
2016-05-18T01:15:50.242Z,11.32
2016-05-18T01:16:00.257Z,11.27
2016-05-18T01:16:10.104Z,11.25
2016-05-18T01:16:20.260Z,11.33
2016-05-18T01:16:30.120Z,11.25
2016-05-18T01:16:40.276Z,11.28
2016-05-18T01:16:50.276Z,11.32
2016-05-18T01:17:00.276Z,11.35
2016-05-18T01:17:10.295Z,11.25
2016-05-18T01:17:20.138Z,11.33
2016-05-18T01:17:30.295Z,11.4
2016-05-18T01:17:40.310Z,11.32
2016-05-18T01:17:50.310Z,11.43
2016-05-18T01:18:00.310Z,11.43
2016-05-18T01:18:10.313Z,11.36
2016-05-18T01:18:20.313Z,11.4
2016-05-18T01:18:30.329Z,11.43
2016-05-18T01:18:40.329Z,11.4
2016-05-18T01:18:50.344Z,11.42
2016-05-18T01:19:00.344Z,11.4
2016-05-18T01:19:10.362Z,11.4
2016-05-18T01:19:20.362Z,11.37
2016-05-18T01:19:30.362Z,11.4
2016-05-18T01:19:40.206Z,11.43
2016-05-18T01:19:50.206Z,11.42
2016-05-18T01:20:00.378Z,11.44
2016-05-18T01:20:10.382Z,11.4
2016-05-18T01:20:20.382Z,11.4
2016-05-18T01:20:30.397Z,11.42
2016-05-18T01:20:40.397Z,11.37
2016-05-18T01:20:50.397Z,11.39
2016-05-18T01:21:00.397Z,11.46
2016-05-18T01:21:10.415Z,11.39
2016-05-18T01:21:20.431Z,11.43
2016-05-18T01:21:30.415Z,11.44
2016-05-18T01:21:40.431Z,11.37
2016-05-18T01:21:50.274Z,11.37
2016-05-18T01:22:00.431Z,11.4
2016-05-18T01:22:10.277Z,11.4
2016-05-18T01:22:20.293Z,11.4
2016-05-18T01:22:30.574Z,11.44
2016-05-18T01:22:40.309Z,11.44
2016-05-18T01:22:50.324Z,11.43
2016-05-18T01:23:00.918Z,11.51
2016-05-18T01:23:10.311Z,11.39
2016-05-18T01:23:20.482Z,11.46
2016-05-18T01:23:30.482Z,11.46
2016-05-18T01:23:40.498Z,11.44
2016-05-18T01:23:50.482Z,11.37
2016-05-18T01:24:00.342Z,11.49
2016-05-18T01:24:10.500Z,11.42
2016-05-18T01:24:20.500Z,11.43
2016-05-18T01:24:30.500Z,11.49
2016-05-18T01:24:40.516Z,11.51
2016-05-18T01:24:50.516Z,11.37
2016-05-18T01:25:00.516Z,11.46
2016-05-18T01:25:10.535Z,11.37
2016-05-18T01:25:20.535Z,11.39
2016-05-18T01:25:30.535Z,11.49
2016-05-18T01:25:40.535Z,11.4
2016-05-18T01:25:50.551Z,11.37
2016-05-18T01:26:00.551Z,11.44
2016-05-18T01:26:10.553Z,11.43
2016-05-18T01:26:20.553Z,11.42
2016-05-18T01:26:30.569Z,11.49
2016-05-18T01:26:40.569Z,11.37
2016-05-18T01:26:50.584Z,11.44
2016-05-18T01:27:00.584Z,11.42
2016-05-18T01:27:10.587Z,11.44
2016-05-18T01:27:20.447Z,11.51
2016-05-18T01:27:30.447Z,11.49
2016-05-18T01:27:40.603Z,11.44
2016-05-18T01:27:50.462Z,11.46
2016-05-18T01:28:00.618Z,11.44
2016-05-18T01:28:10.465Z,11.46
2016-05-18T01:28:20.621Z,11.47
2016-05-18T01:28:30.621Z,11.52
2016-05-18T01:28:40.637Z,11.52
2016-05-18T01:28:50.637Z,11.58
2016-05-18T01:29:00.637Z,11.46
2016-05-18T01:29:10.655Z,11.55
2016-05-18T01:29:20.655Z,11.49
2016-05-18T01:29:30.498Z,11.55
2016-05-18T01:29:40.655Z,11.54
2016-05-18T01:29:50.670Z,11.51
2016-05-18T01:30:00.514Z,11.51
2016-05-18T01:30:10.673Z,11.52
2016-05-18T01:30:20.689Z,11.55
2016-05-18T01:30:30.689Z,11.61
2016-05-18T01:30:40.689Z,11.55
2016-05-18T01:30:50.705Z,11.54
2016-05-18T01:31:00.705Z,11.58
2016-05-18T01:31:10.550Z,11.54
2016-05-18T01:31:20.707Z,11.55
2016-05-18T01:31:30.566Z,11.54
2016-05-18T01:31:40.722Z,11.52
2016-05-18T01:31:50.722Z,11.49
2016-05-18T01:32:00.582Z,11.55
2016-05-18T01:32:10.742Z,11.57
2016-05-18T01:32:20.742Z,11.54
2016-05-18T01:32:30.742Z,11.52
2016-05-18T01:32:40.757Z,11.55
2016-05-18T01:32:50.601Z,11.54
2016-05-18T01:33:00.757Z,11.58
2016-05-18T01:33:10.775Z,11.64
2016-05-18T01:33:20.775Z,11.54
2016-05-18T01:33:30.775Z,11.67
2016-05-18T01:33:40.775Z,11.61
2016-05-18T01:33:50.791Z,11.6
2016-05-18T01:34:00.791Z,11.61
2016-05-18T01:34:10.794Z,11.61
2016-05-18T01:34:20.809Z,11.64
2016-05-18T01:34:30.809Z,11.61
2016-05-18T01:34:40.809Z,11.64
2016-05-18T01:34:50.809Z,11.61
2016-05-18T01:35:00.825Z,11.62
2016-05-18T01:35:10.827Z,11.61
2016-05-18T01:35:20.843Z,11.62
2016-05-18T01:35:30.843Z,11.7
2016-05-18T01:35:40.843Z,11.64
2016-05-18T01:35:50.843Z,11.61
2016-05-18T01:36:00.858Z,11.64
2016-05-18T01:36:10.861Z,11.61
2016-05-18T01:36:20.861Z,11.62
2016-05-18T01:36:30.861Z,11.61
2016-05-18T01:36:40.877Z,11.67
2016-05-18T01:36:50.877Z,11.64
2016-05-18T01:37:00.877Z,11.61
2016-05-18T01:37:10.895Z,11.69
2016-05-18T01:37:20.895Z,11.65
2016-05-18T01:37:30.895Z,11.67
2016-05-18T01:37:40.755Z,11.65
2016-05-18T01:37:50.942Z,11.64
2016-05-18T01:38:00.927Z,11.75
2016-05-18T01:38:11.007Z,11.6
2016-05-18T01:38:20.929Z,11.65
2016-05-18T01:38:30.772Z,11.67
2016-05-18T01:38:40.929Z,11.72
2016-05-18T01:38:50.944Z,11.69
2016-05-18T01:39:00.944Z,11.67
2016-05-18T01:39:10.947Z,11.7
2016-05-18T01:39:20.947Z,11.72
2016-05-18T01:39:30.963Z,11.65
2016-05-18T01:39:40.963Z,11.73
2016-05-18T01:39:50.963Z,11.67
2016-05-18T01:40:00.979Z,11.76
2016-05-18T01:40:10.982Z,11.73
2016-05-18T01:40:20.982Z,11.75
2016-05-18T01:40:30.982Z,11.72
2016-05-18T01:40:40.997Z,11.78
2016-05-18T01:40:50.997Z,11.72
2016-05-18T01:41:01.013Z,11.69
2016-05-18T01:41:11.016Z,11.76
2016-05-18T01:41:21.016Z,11.73
2016-05-18T01:41:31.016Z,11.73
2016-05-18T01:41:41.031Z,11.75
2016-05-18T01:41:50.875Z,11.69
2016-05-18T01:42:01.031Z,11.78
2016-05-18T01:42:11.033Z,11.76
2016-05-18T01:42:21.049Z,11.8
2016-05-18T01:42:31.049Z,11.8
2016-05-18T01:42:41.049Z,11.78
2016-05-18T01:42:51.049Z,11.85
2016-05-18T01:43:01.065Z,11.75
2016-05-18T01:43:11.068Z,11.79
2016-05-18T01:43:20.927Z,11.82
2016-05-18T01:43:30.927Z,11.8
2016-05-18T01:43:41.083Z,11.8
2016-05-18T01:43:50.927Z,11.82
2016-05-18T01:44:01.099Z,11.86
2016-05-18T01:44:11.102Z,11.85
2016-05-18T01:44:21.102Z,11.85
2016-05-18T01:44:31.118Z,11.85
2016-05-18T01:44:41.118Z,11.83
2016-05-18T01:44:51.118Z,11.82
2016-05-18T01:45:00.977Z,11.83
2016-05-18T01:45:11.135Z,11.88
2016-05-18T01:45:21.135Z,11.83
2016-05-18T01:45:31.135Z,11.83
2016-05-18T01:45:40.995Z,11.85
2016-05-18T01:45:51.151Z,11.94
2016-05-18T01:46:01.151Z,11.85
2016-05-18T01:46:11.169Z,11.86
2016-05-18T01:46:21.169Z,11.85
2016-05-18T01:46:31.169Z,11.86
2016-05-18T01:46:41.185Z,11.82
2016-05-18T01:46:51.185Z,11.85
2016-05-18T01:47:01.185Z,11.75
2016-05-18T01:47:11.032Z,11.82
2016-05-18T01:47:21.204Z,11.83
2016-05-18T01:47:31.204Z,11.83
2016-05-18T01:47:41.204Z,11.88
2016-05-18T01:47:51.219Z,11.86
2016-05-18T01:48:01.219Z,11.88
2016-05-18T01:48:11.222Z,11.9
2016-05-18T01:48:21.082Z,11.91
2016-05-18T01:48:31.238Z,11.94
2016-05-18T01:48:41.238Z,11.88
2016-05-18T01:48:51.254Z,11.85
2016-05-18T01:49:01.254Z,11.83
2016-05-18T01:49:11.256Z,11.88
2016-05-18T01:49:21.256Z,11.85
2016-05-18T01:49:31.256Z,11.9
2016-05-18T01:49:41.287Z,11.94
2016-05-18T01:49:51.271Z,11.9
2016-05-18T01:50:01.287Z,12.01
2016-05-18T01:50:11.118Z,11.95
2016-05-18T01:50:21.134Z,11.95
2016-05-18T01:50:31.290Z,11.9
2016-05-18T01:50:41.305Z,11.98
2016-05-18T01:50:51.305Z,11.99
2016-05-18T01:51:01.165Z,11.88
2016-05-18T01:51:11.307Z,11.96
2016-05-18T01:51:21.323Z,11.94
2016-05-18T01:51:31.323Z,11.96
2016-05-18T01:51:41.323Z,11.96
2016-05-18T01:51:51.323Z,11.9
2016-05-18T01:52:01.339Z,11.96
2016-05-18T01:52:11.342Z,11.99
2016-05-18T01:52:21.357Z,11.95
2016-05-18T01:52:31.201Z,11.99
2016-05-18T01:52:41.357Z,12.05
2016-05-18T01:52:51.373Z,11.91
2016-05-18T01:53:01.295Z,11.98
2016-05-18T01:53:11.376Z,11.99
2016-05-18T01:53:21.501Z,11.96
2016-05-18T01:53:31.407Z,12.01
2016-05-18T01:53:41.392Z,12.07
2016-05-18T01:53:51.392Z,11.99
2016-05-18T01:54:01.392Z,12.05
2016-05-18T01:54:11.425Z,12.02
2016-05-18T01:54:21.409Z,12.01
2016-05-18T01:54:31.409Z,12.02
2016-05-18T01:54:41.409Z,12.02
2016-05-18T01:54:51.425Z,12.07
2016-05-18T01:55:01.425Z,11.99
2016-05-18T01:55:11.428Z,12.02
2016-05-18T01:55:21.443Z,12.02
2016-05-18T01:55:31.443Z,12.04
2016-05-18T01:55:41.443Z,11.99
2016-05-18T01:55:51.443Z,11.96
2016-05-18T01:56:01.459Z,12.05
2016-05-18T01:56:11.462Z,12.09
2016-05-18T01:56:21.462Z,12.04
2016-05-18T01:56:31.478Z,12.07
2016-05-18T01:56:41.321Z,12.09
2016-05-18T01:56:51.478Z,12.09
2016-05-18T01:57:01.493Z,12.07
2016-05-18T01:57:11.496Z,12.07
2016-05-18T01:57:21.340Z,12.02
2016-05-18T01:57:31.512Z,12.05
2016-05-18T01:57:41.356Z,12.07
2016-05-18T01:57:51.512Z,12.02
2016-05-18T01:58:01.528Z,12.05
2016-05-18T01:58:11.530Z,12.05
2016-05-18T01:58:21.530Z,12.13
2016-05-18T01:58:31.545Z,12.17
2016-05-18T01:58:41.545Z,12.05
2016-05-18T01:58:51.545Z,12.07
2016-05-18T01:59:01.545Z,12.05
2016-05-18T01:59:11.564Z,12.14
2016-05-18T01:59:21.564Z,12.14
2016-05-18T01:59:31.579Z,12.12
2016-05-18T01:59:41.579Z,12.14
2016-05-18T01:59:51.579Z,12.14
2016-05-18T02:00:01.579Z,12.12
2016-05-18T02:00:11.582Z,12.17
2016-05-18T02:00:21.442Z,12.09
2016-05-18T02:00:31.598Z,12.1
2016-05-18T02:00:41.598Z,12.16
2016-05-18T02:00:51.457Z,12.12
2016-05-18T02:01:01.457Z,12.13
2016-05-18T02:01:11.616Z,12.14
2016-05-18T02:01:21.616Z,12.14
2016-05-18T02:01:31.631Z,12.21
2016-05-18T02:01:41.631Z,12.1
2016-05-18T02:01:51.647Z,12.16
2016-05-18T02:02:01.647Z,12.12
2016-05-18T02:02:11.651Z,12.1
2016-05-18T02:02:21.651Z,12.14
2016-05-18T02:02:31.667Z,12.17
2016-05-18T02:02:41.667Z,12.19
2016-05-18T02:02:51.667Z,12.13
2016-05-18T02:03:01.667Z,12.19
2016-05-18T02:03:11.684Z,12.19
2016-05-18T02:03:21.684Z,12.17
2016-05-18T02:03:31.684Z,12.2
2016-05-18T02:03:41.700Z,12.17
2016-05-18T02:03:51.700Z,12.21
2016-05-18T02:04:01.544Z,12.21
2016-05-18T02:04:11.702Z,12.14
2016-05-18T02:04:21.717Z,12.21
2016-05-18T02:04:31.717Z,12.23
2016-05-18T02:04:41.717Z,12.21
2016-05-18T02:04:51.733Z,12.2
2016-05-18T02:05:01.733Z,12.17
2016-05-18T02:05:11.752Z,12.21
2016-05-18T02:05:21.752Z,12.24
2016-05-18T02:05:31.595Z,12.19
2016-05-18T02:05:41.752Z,12.21
2016-05-18T02:05:51.752Z,12.19
2016-05-18T02:06:01.767Z,12.16
2016-05-18T02:06:11.770Z,12.21
2016-05-18T02:06:21.770Z,12.24
2016-05-18T02:06:31.630Z,12.2
2016-05-18T02:06:41.786Z,12.21
2016-05-18T02:06:51.786Z,12.21
2016-05-18T02:07:01.802Z,12.2
2016-05-18T02:07:11.804Z,12.24
2016-05-18T02:07:21.804Z,12.2
2016-05-18T02:07:32.116Z,12.23
2016-05-18T02:07:41.663Z,12.2
2016-05-18T02:07:51.897Z,12.24
2016-05-18T02:08:01.679Z,12.21
2016-05-18T02:08:11.838Z,12.21
2016-05-18T02:08:21.682Z,12.2
2016-05-18T02:08:31.838Z,12.29
2016-05-18T02:08:41.697Z,12.2
2016-05-18T02:08:51.853Z,12.21
2016-05-18T02:09:01.853Z,12.28
2016-05-18T02:09:11.856Z,12.27
2016-05-18T02:09:21.872Z,12.23
2016-05-18T02:09:31.872Z,12.23